Chesterfield, Idaho
Current Conditions -  °F | °C
As of 2:53 PM on Sunday 23 Nov 2014 (Local Time) from KPIH Reporting Station
Scattered Clouds Scattered Clouds  
Wind Chill: -3°   Ceiling: Unl
Heat Index:   Visibility: 10mi
Dew Point: -2°   Wind: 25mph
Humidity: 68%   Direction: 240°WSW
Pressure: 30.17"   Gusts: 30mph
Location:  42.811°N, 111.938°W
Report Text: KPIH 232153Z 24022G26KT 10SM SCT025 03/M02 A3017 RMK AO2 PK WND 24031/2119 SLP231 T00331022
Loading
Personal Weather Stations






























Interactive Weather Map New forecast layout! Learn more

10-Day Weather Forecast

Advertisements
Track Severe Weather on mobile